Time;durP1;ratioP1;P1;durP2;ratioP2;P2;SDS_P1;SDS_P2;PMS_P1;PMS_P2;Temp;Humidity;BMP_temperature;BMP_pressure;BME280_temperature;BME280_humidity;BME280_pressure;Samples;Min_cycle;Max_cycle;Signal;HPM_P1;HPM_P2
2024/04/01 00:00:06;;;;;;;2.33;1.20;;;7.20;99.90;;;;;;5097752;28;20023;-93
2024/04/01 00:02:32;;;;;;;3.90;1.60;;;7.20;99.90;;;;;;5098201;28;20034;-93
2024/04/01 00:04:58;;;;;;;2.60;1.23;;;7.10;99.90;;;;;;5097643;28;20024;-92
2024/04/01 00:07:24;;;;;;;1.65;1.40;;;7.20;99.90;;;;;;5098256;28;20117;-92
2024/04/01 00:09:49;;;;;;;5.05;1.35;;;7.10;99.90;;;;;;5095879;28;20110;-93
2024/04/01 00:12:15;;;;;;;1.42;1.10;;;7.10;99.90;;;;;;5097867;28;20028;-91
2024/04/01 00:14:41;;;;;;;2.50;1.05;;;7.10;99.90;;;;;;5097701;28;20106;-92
2024/04/01 00:17:06;;;;;;;0.88;0.88;;;7.10;99.90;;;;;;5097725;28;20015;-91
2024/04/01 00:19:32;;;;;;;1.25;0.80;;;7.00;99.90;;;;;;5097348;28;20058;-91
2024/04/01 00:21:58;;;;;;;1.05;0.95;;;7.10;99.90;;;;;;5098143;28;20054;-91
2024/04/01 00:24:23;;;;;;;0.77;0.73;;;7.00;99.90;;;;;;5098037;28;20027;-92
2024/04/01 00:26:49;;;;;;;0.82;0.70;;;7.00;99.90;;;;;;5097760;28;20100;-91
2024/04/01 00:29:15;;;;;;;0.60;0.60;;;7.00;99.90;;;;;;5098268;28;20028;-91
2024/04/01 00:31:40;;;;;;;1.10;0.80;;;7.00;99.90;;;;;;5098243;28;20042;-92
2024/04/01 00:34:06;;;;;;;1.17;0.93;;;7.00;99.90;;;;;;5097706;28;20077;-91
2024/04/01 00:36:32;;;;;;;1.55;0.93;;;7.00;99.90;;;;;;5097509;28;20047;-92
2024/04/01 00:38:58;;;;;;;1.73;0.70;;;7.00;99.90;;;;;;5100849;28;20073;-92
2024/04/01 00:41:24;;;;;;;2.47;1.20;;;7.00;99.90;;;;;;5106428;28;20047;-91
2024/04/01 00:43:50;;;;;;;2.85;1.50;;;7.00;99.90;;;;;;5106148;28;20038;-92
2024/04/01 00:46:18;;;;;;;0.77;0.77;;;7.00;99.90;;;;;;5106857;28;20031;-92
2024/04/01 00:48:45;;;;;;;1.50;1.10;;;7.00;99.90;;;;;;5104290;28;20077;-92
2024/04/01 00:51:11;;;;;;;2.45;1.00;;;7.00;99.90;;;;;;5097594;28;20028;-91
2024/04/01 00:53:37;;;;;;;1.83;0.80;;;6.90;99.90;;;;;;5097335;28;20119;-91
2024/04/01 00:56:04;;;;;;;1.50;0.77;;;6.90;99.90;;;;;;5097548;28;20040;-92
2024/04/01 00:58:30;;;;;;;0.70;0.60;;;6.90;99.90;;;;;;5097488;28;20030;-92
2024/04/01 01:00:57;;;;;;;1.25;0.82;;;6.90;99.90;;;;;;5097294;28;20023;-91
2024/04/01 01:03:23;;;;;;;3.55;2.05;;;6.90;99.90;;;;;;5096768;28;20036;-92
2024/04/01 01:05:49;;;;;;;5.05;2.47;;;6.90;99.90;;;;;;5096878;28;20104;-91
2024/04/01 01:08:15;;;;;;;8.18;2.60;;;6.90;99.90;;;;;;5096510;28;20039;-91
2024/04/01 01:10:41;;;;;;;4.70;2.53;;;6.90;99.90;;;;;;5096977;28;20034;-91
2024/04/01 01:13:07;;;;;;;4.97;2.65;;;6.90;99.90;;;;;;5097578;28;20484;-91
2024/04/01 01:15:33;;;;;;;6.07;3.40;;;6.90;99.90;;;;;;5097204;28;20026;-92
2024/04/01 01:17:59;;;;;;;6.35;3.20;;;6.90;99.90;;;;;;5096926;28;20024;-93
2024/04/01 01:20:25;;;;;;;7.20;3.50;;;6.80;99.90;;;;;;5097168;28;20123;-91
2024/04/01 01:22:51;;;;;;;6.50;3.50;;;6.90;99.90;;;;;;5103203;28;20031;-92
2024/04/01 01:25:16;;;;;;;6.57;3.65;;;6.80;99.90;;;;;;5102061;28;20392;-90
2024/04/01 01:27:43;;;;;;;6.13;3.67;;;6.90;99.90;;;;;;5102243;28;20030;-91
2024/04/01 01:30:16;;;;;;;8.00;4.50;;;6.80;99.90;;;;;;5102529;28;20087;-92
2024/04/01 01:32:54;;;;;;;7.70;4.50;;;6.80;99.90;;;;;;5097948;28;20024;-92
2024/04/01 01:35:25;;;;;;;5.70;3.90;;;6.80;99.90;;;;;;5098011;28;20020;-92
2024/04/01 01:37:51;;;;;;;9.63;4.38;;;6.80;99.90;;;;;;5097105;28;20027;-93
2024/04/01 01:40:17;;;;;;;5.97;4.25;;;6.80;99.90;;;;;;5096254;28;20132;-93
2024/04/01 01:42:44;;;;;;;8.73;4.43;;;6.80;99.90;;;;;;5096913;28;20039;-93
2024/04/01 01:45:10;;;;;;;5.10;3.97;;;6.80;99.90;;;;;;5096389;28;20015;-93
2024/04/01 01:47:37;;;;;;;7.63;4.47;;;6.80;99.90;;;;;;5096676;28;20024;-94
2024/04/01 01:50:04;;;;;;;7.72;4.75;;;6.70;99.90;;;;;;5096573;28;20020;-94
2024/04/01 01:52:30;;;;;;;9.38;4.97;;;6.80;99.90;;;;;;5096810;28;20023;-91
2024/04/01 01:54:56;;;;;;;7.63;4.70;;;6.80;99.90;;;;;;5096609;28;20043;-91
2024/04/01 01:57:22;;;;;;;8.43;5.25;;;6.80;99.90;;;;;;5096829;28;20032;-93
2024/04/01 01:59:48;;;;;;;9.70;5.15;;;6.80;99.90;;;;;;5096280;28;20024;-94
2024/04/01 02:02:15;;;;;;;9.57;5.63;;;6.80;99.90;;;;;;5096553;28;20033;-95
2024/04/01 02:04:41;;;;;;;10.27;5.38;;;6.70;99.90;;;;;;5096162;28;20023;-93
2024/04/01 02:07:07;;;;;;;7.97;5.10;;;6.80;99.90;;;;;;5096235;28;20027;-92
2024/04/01 02:09:33;;;;;;;8.68;4.57;;;6.70;99.90;;;;;;5096095;28;20023;-92
2024/04/01 02:12:00;;;;;;;8.57;4.20;;;6.80;99.90;;;;;;5096595;28;20118;-93
2024/04/01 02:14:26;;;;;;;6.28;3.78;;;6.70;99.90;;;;;;5095453;28;20031;-93
2024/04/01 02:16:51;;;;;;;6.97;3.80;;;6.70;99.90;;;;;;5095643;28;20181;-94
2024/04/01 02:19:17;;;;;;;6.72;3.28;;;6.70;99.90;;;;;;5096245;28;20031;-92
2024/04/01 02:21:46;;;;;;;5.97;3.40;;;6.70;99.90;;;;;;5096327;28;20043;-92
2024/04/01 02:24:17;;;;;;;6.38;2.78;;;6.70;99.90;;;;;;5095512;28;20020;-91
2024/04/01 02:26:47;;;;;;;6.03;2.92;;;6.70;99.90;;;;;;5096136;28;20024;-92
2024/04/01 02:29:13;;;;;;;7.40;3.40;;;6.70;99.90;;;;;;5095894;28;20157;-92
2024/04/01 02:31:39;;;;;;;5.57;3.65;;;6.70;99.90;;;;;;5095708;28;20031;-92
2024/04/01 02:34:05;;;;;;;4.90;2.97;;;6.80;99.90;;;;;;5096303;28;20362;-93
2024/04/01 02:36:31;;;;;;;7.28;3.40;;;6.70;99.90;;;;;;5096119;28;20024;-92
2024/04/01 02:38:57;;;;;;;6.32;3.03;;;6.70;99.90;;;;;;5096533;28;20510;-92
2024/04/01 02:41:22;;;;;;;6.95;2.83;;;6.80;99.90;;;;;;5100135;28;20049;-93
2024/04/01 02:43:48;;;;;;;9.10;3.33;;;6.80;99.90;;;;;;5100434;28;20053;-91
2024/04/01 02:46:14;;;;;;;6.57;3.28;;;6.70;99.90;;;;;;5100351;28;20366;-91
2024/04/01 02:48:40;;;;;;;8.10;3.03;;;6.70;99.90;;;;;;5098535;28;20028;-92
2024/04/01 02:51:06;;;;;;;5.95;3.08;;;6.70;99.90;;;;;;5096356;28;20023;-91
2024/04/01 02:53:32;;;;;;;5.38;3.15;;;6.70;99.90;;;;;;5096660;28;20042;-91
2024/04/01 02:55:57;;;;;;;6.05;2.90;;;6.70;99.90;;;;;;5096643;28;20023;-91
2024/04/01 02:58:23;;;;;;;8.13;3.03;;;6.70;99.90;;;;;;5099318;28;20464;-91
2024/04/01 03:00:49;;;;;;;4.10;2.63;;;6.70;99.90;;;;;;5099709;28;20115;-93
2024/04/01 03:03:15;;;;;;;5.75;2.53;;;6.70;99.90;;;;;;5099157;28;20080;-92
2024/04/01 03:05:41;;;;;;;7.95;2.58;;;6.70;99.90;;;;;;5098855;28;20027;-91
2024/04/01 03:08:08;;;;;;;4.97;2.47;;;6.70;99.90;;;;;;5099273;28;20100;-92
2024/04/01 03:10:37;;;;;;;5.53;2.65;;;6.70;99.90;;;;;;5099444;28;20496;-91
2024/04/01 03:13:06;;;;;;;5.53;2.38;;;6.70;99.90;;;;;;5098993;28;20032;-91
2024/04/01 03:15:32;;;;;;;4.93;2.20;;;6.70;99.90;;;;;;5098122;28;20016;-91
2024/04/01 03:17:58;;;;;;;5.53;1.55;;;6.60;99.90;;;;;;5098625;28;20102;-91
2024/04/01 03:20:25;;;;;;;2.83;1.58;;;6.70;99.90;;;;;;5099000;28;20069;-91
2024/04/01 03:22:50;;;;;;;3.15;1.52;;;6.70;99.90;;;;;;5099085;28;20503;-91
2024/04/01 03:25:16;;;;;;;4.45;1.40;;;6.70;99.90;;;;;;5098396;28;20027;-90
2024/04/01 03:27:42;;;;;;;2.00;1.60;;;6.70;99.90;;;;;;5098866;28;20031;-90
2024/04/01 03:30:09;;;;;;;3.22;1.50;;;6.70;99.90;;;;;;5099029;28;20027;-91
2024/04/01 03:32:38;;;;;;;3.40;1.77;;;6.70;99.90;;;;;;5081962;28;20044;-91
2024/04/01 03:35:04;;;;;;;9.15;2.83;;;6.80;99.90;;;;;;5073745;28;20058;-90
2024/04/01 03:37:30;;;;;;;2.90;2.03;;;6.70;99.90;;;;;;5078366;28;20028;-91
2024/04/01 03:39:56;;;;;;;4.63;2.42;;;6.80;99.90;;;;;;5078727;28;20028;-91
2024/04/01 03:42:22;;;;;;;3.47;2.67;;;6.80;99.90;;;;;;5077934;28;20627;-91
2024/04/01 03:44:53;;;;;;;2.85;1.85;;;6.80;99.90;;;;;;5078159;28;20016;-90
2024/04/01 03:47:19;;;;;;;6.72;2.80;;;6.80;99.90;;;;;;5078660;28;20031;-91
2024/04/01 03:49:47;;;;;;;4.88;2.63;;;6.80;99.90;;;;;;5078673;28;20020;-91
2024/04/01 03:52:12;;;;;;;5.50;2.85;;;6.80;99.90;;;;;;5076608;28;20020;-92
2024/04/01 03:54:38;;;;;;;4.30;3.17;;;6.80;99.90;;;;;;5078705;28;20032;-91
2024/04/01 03:57:04;;;;;;;7.50;3.38;;;6.80;99.90;;;;;;5077961;28;20036;-91
2024/04/01 03:59:30;;;;;;;5.65;2.97;;;6.80;99.90;;;;;;5077675;28;20020;-91
2024/04/01 04:01:55;;;;;;;4.07;2.85;;;6.80;99.90;;;;;;5077610;28;20380;-91
2024/04/01 04:04:21;;;;;;;5.55;2.60;;;6.80;99.90;;;;;;5077668;28;20031;-92
2024/04/01 04:06:47;;;;;;;6.57;3.08;;;6.80;99.90;;;;;;5078016;28;20595;-92
2024/04/01 04:09:16;;;;;;;4.88;3.03;;;6.80;99.90;;;;;;5077316;28;20038;-92
2024/04/01 04:11:48;;;;;;;5.03;2.70;;;6.80;99.90;;;;;;5077725;28;20032;-92
2024/04/01 04:14:17;;;;;;;6.15;3.30;;;6.70;99.90;;;;;;5077566;28;20095;-91
2024/04/01 04:16:45;;;;;;;3.92;2.40;;;6.80;99.90;;;;;;5077400;28;20115;-92
2024/04/01 04:19:11;;;;;;;5.90;2.63;;;6.70;99.90;;;;;;5077124;28;20058;-91
2024/04/01 04:21:36;;;;;;;5.07;2.65;;;6.80;99.90;;;;;;5077705;28;20080;-93
2024/04/01 04:24:02;;;;;;;4.68;2.20;;;6.80;99.90;;;;;;5077718;28;20492;-92
2024/04/01 04:26:28;;;;;;;3.78;2.00;;;6.80;99.90;;;;;;5079085;28;20473;-91
2024/04/01 04:28:54;;;;;;;3.80;2.40;;;6.80;99.90;;;;;;5079234;28;20032;-91
2024/04/01 04:31:19;;;;;;;3.58;1.98;;;6.80;99.90;;;;;;5080037;28;20020;-90
2024/04/01 04:33:46;;;;;;;3.40;1.83;;;6.80;99.90;;;;;;5079703;28;20120;-91
2024/04/01 04:36:12;;;;;;;4.65;2.13;;;6.80;99.90;;;;;;5079021;28;20358;-90
2024/04/01 04:38:37;;;;;;;4.85;1.95;;;6.80;99.90;;;;;;5079001;28;20106;-91
2024/04/01 04:41:04;;;;;;;3.47;1.92;;;6.80;99.90;;;;;;5078640;28;20051;-92
2024/04/01 04:43:30;;;;;;;3.22;1.90;;;6.80;99.90;;;;;;5077665;28;20401;-91
2024/04/01 04:45:56;;;;;;;4.70;2.00;;;6.80;99.90;;;;;;5077385;28;20119;-90
2024/04/01 04:48:22;;;;;;;3.05;1.80;;;6.80;99.90;;;;;;5077126;28;20024;-91
2024/04/01 04:50:48;;;;;;;3.35;2.10;;;6.80;99.90;;;;;;5076945;28;20020;-91
2024/04/01 04:53:13;;;;;;;3.40;1.63;;;6.80;99.90;;;;;;5077636;28;20436;-90
2024/04/01 04:55:40;;;;;;;2.50;1.40;;;6.80;99.90;;;;;;5076866;28;20024;-91
2024/04/01 04:58:05;;;;;;;2.55;1.67;;;6.80;99.90;;;;;;5076751;28;20393;-90
2024/04/01 05:00:31;;;;;;;3.83;1.40;;;6.80;99.90;;;;;;5076926;28;20028;-91
2024/04/01 05:02:57;;;;;;;2.25;1.20;;;6.80;99.90;;;;;;5076636;28;20184;-91
2024/04/01 05:05:25;;;;;;;1.67;1.38;;;6.80;99.90;;;;;;5076833;28;20020;-90
2024/04/01 05:07:51;;;;;;;1.33;1.10;;;6.80;99.90;;;;;;5077063;28;20081;-90
2024/04/01 05:10:17;;;;;;;1.85;1.00;;;6.80;99.90;;;;;;5076472;28;20017;-92
2024/04/01 05:12:43;;;;;;;1.67;0.93;;;6.80;99.90;;;;;;5076676;28;20042;-92
2024/04/01 05:15:09;;;;;;;0.82;0.68;;;6.80;99.90;;;;;;5076624;28;20031;-91
2024/04/01 05:17:38;;;;;;;1.30;0.95;;;6.80;99.90;;;;;;5076393;28;20032;-92
2024/04/01 05:20:04;;;;;;;1.17;0.77;;;6.80;99.90;;;;;;5059326;28;20052;-91
2024/04/01 05:22:30;;;;;;;0.77;0.68;;;6.80;99.90;;;;;;5075935;28;20145;-92
2024/04/01 05:24:57;;;;;;;0.82;0.65;;;6.80;99.90;;;;;;5076507;28;20048;-90
2024/04/01 05:27:23;;;;;;;0.90;0.60;;;6.80;99.90;;;;;;5076848;28;20020;-90
2024/04/01 05:30:09;;;;;;;0.40;0.40;;;6.80;99.90;;;;;;5076421;28;20445;-90
2024/04/01 05:32:35;;;;;;;0.75;0.70;;;6.80;99.90;;;;;;5076353;28;20031;-90
2024/04/01 05:35:02;;;;;;;0.80;0.60;;;6.80;99.90;;;;;;5077054;28;20043;-91
2024/04/01 05:37:28;;;;;;;1.02;0.57;;;6.80;99.90;;;;;;5077083;28;20034;-90
2024/04/01 05:39:54;;;;;;;0.82;0.70;;;6.80;99.90;;;;;;5077325;28;20132;-90
2024/04/01 05:42:21;;;;;;;0.80;0.40;;;6.90;99.90;;;;;;5078135;28;20028;-90
2024/04/01 05:44:47;;;;;;;1.75;0.50;;;6.90;99.90;;;;;;5078964;28;20028;-90
2024/04/01 05:47:13;;;;;;;0.88;0.50;;;6.80;99.90;;;;;;5078798;28;20028;-90
2024/04/01 05:49:39;;;;;;;0.52;0.45;;;6.90;99.90;;;;;;5081157;28;20492;-91
2024/04/01 05:52:05;;;;;;;0.57;0.57;;;6.90;99.90;;;;;;5078830;28;20035;-91
2024/04/01 05:54:31;;;;;;;1.13;0.60;;;6.90;99.90;;;;;;5079267;28;20468;-90
2024/04/01 05:56:58;;;;;;;0.65;0.50;;;6.90;99.90;;;;;;5077369;28;20043;-91
2024/04/01 05:59:27;;;;;;;1.10;1.00;;;6.80;99.90;;;;;;5076378;28;20035;-90
2024/04/01 06:01:57;;;;;;;0.30;0.30;;;6.80;99.90;;;;;;5075922;28;20048;-91
2024/04/01 06:04:25;;;;;;;1.45;0.40;;;6.90;99.90;;;;;;5075949;28;20032;-91
2024/04/01 06:06:51;;;;;;;0.30;0.30;;;6.90;99.90;;;;;;5076358;28;20044;-91
2024/04/01 06:09:17;;;;;;;0.40;0.40;;;6.90;99.90;;;;;;5076994;28;20024;-91
2024/04/01 06:11:43;;;;;;;0.40;0.40;;;6.90;99.90;;;;;;5078000;28;20087;-91
2024/04/01 06:14:09;;;;;;;0.50;0.30;;;6.90;99.90;;;;;;5076510;28;20441;-92
2024/04/01 06:16:36;;;;;;;0.30;0.30;;;6.90;99.90;;;;;;5075967;28;20024;-91
2024/04/01 06:19:02;;;;;;;0.82;0.50;;;6.90;99.90;;;;;;5076084;28;20024;-91
2024/04/01 06:21:28;;;;;;;0.50;0.40;;;6.80;99.90;;;;;;5074810;28;20051;-92
2024/04/01 06:23:54;;;;;;;0.80;0.75;;;6.90;99.90;;;;;;5075823;28;20040;-92
2024/04/01 06:26:19;;;;;;;0.63;0.55;;;6.90;99.90;;;;;;5075526;28;20024;-91
2024/04/01 06:28:48;;;;;;;0.65;0.65;;;6.80;99.90;;;;;;5075161;28;20036;-92
2024/04/01 06:31:14;;;;;;;0.43;0.43;;;6.80;99.90;;;;;;5076943;28;20028;-90
2024/04/01 06:33:40;;;;;;;0.85;0.85;;;6.90;99.90;;;;;;5080026;28;20024;-93
2024/04/01 06:36:07;;;;;;;1.05;0.82;;;6.90;99.90;;;;;;5079179;28;20480;-94
2024/04/01 06:38:33;;;;;;;1.10;0.77;;;6.90;99.90;;;;;;5081468;28;20039;-92
2024/04/01 06:40:59;;;;;;;1.27;0.88;;;6.90;99.90;;;;;;5080002;28;20026;-95
2024/04/01 06:43:25;;;;;;;1.08;0.82;;;6.90;99.90;;;;;;5079967;28;20039;-92
2024/04/01 06:45:55;;;;;;;0.57;0.57;;;6.90;99.90;;;;;;5085328;28;20024;-92
2024/04/01 06:48:22;;;;;;;0.52;0.52;;;6.90;99.90;;;;;;5099473;28;20024;-92
2024/04/01 06:50:48;;;;;;;1.17;0.70;;;6.80;99.90;;;;;;5098542;28;20376;-92
2024/04/01 06:53:17;;;;;;;0.82;0.70;;;6.80;99.90;;;;;;5099013;28;20028;-93
2024/04/01 06:55:45;;;;;;;1.05;0.77;;;6.80;99.90;;;;;;5098546;28;20023;-92
2024/04/01 06:58:12;;;;;;;0.73;0.63;;;6.80;99.90;;;;;;5099250;28;20074;-93
2024/04/01 07:00:38;;;;;;;1.30;0.90;;;6.80;99.90;;;;;;5117415;28;20016;-93
2024/04/01 07:03:04;;;;;;;0.70;0.70;;;6.80;99.90;;;;;;5098662;28;20039;-93
2024/04/01 07:05:30;;;;;;;0.90;0.80;;;6.90;99.90;;;;;;5098205;28;20028;-91
2024/04/01 07:07:57;;;;;;;1.02;0.82;;;6.90;99.90;;;;;;5098351;28;20093;-93
2024/04/01 07:10:23;;;;;;;1.33;0.90;;;6.80;99.90;;;;;;5098523;28;20043;-92
2024/04/01 07:12:49;;;;;;;0.90;0.90;;;6.80;99.90;;;;;;5100146;28;20027;-91
2024/04/01 07:15:15;;;;;;;1.67;1.17;;;6.90;99.90;;;;;;5098678;28;20027;-91
2024/04/01 07:17:43;;;;;;;1.42;1.00;;;6.90;99.90;;;;;;5098567;28;20399;-92
2024/04/01 07:20:12;;;;;;;1.05;0.95;;;6.90;99.90;;;;;;5098661;28;20039;-92
2024/04/01 07:22:38;;;;;;;1.60;0.80;;;6.90;99.90;;;;;;5098856;28;20036;-91
2024/04/01 07:25:04;;;;;;;1.05;0.90;;;6.90;99.90;;;;;;5099731;28;20024;-92
2024/04/01 07:27:34;;;;;;;1.50;0.90;;;6.90;99.90;;;;;;5098535;28;20030;-92
2024/04/01 07:30:03;;;;;;;0.80;0.80;;;6.90;99.90;;;;;;5098931;28;20024;-92
2024/04/01 07:32:30;;;;;;;1.48;0.82;;;6.90;99.90;;;;;;5098853;28;20024;-91
2024/04/01 07:34:56;;;;;;;0.73;0.70;;;6.90;99.90;;;;;;5100192;28;20027;-93
2024/04/01 07:37:22;;;;;;;0.80;0.70;;;6.90;99.90;;;;;;5096778;28;20496;-91
2024/04/01 07:39:48;;;;;;;2.67;1.00;;;6.90;99.90;;;;;;5101517;28;20026;-91
2024/04/01 07:42:15;;;;;;;1.05;0.95;;;6.90;99.90;;;;;;5100559;28;20057;-92
2024/04/01 07:44:40;;;;;;;0.85;0.77;;;7.00;99.90;;;;;;5099794;28;20024;-92
2024/04/01 07:47:08;;;;;;;1.08;0.95;;;6.90;99.90;;;;;;5098668;28;20023;-92
2024/04/01 07:49:34;;;;;;;2.15;1.10;;;6.90;99.90;;;;;;5099722;28;20032;-92
2024/04/01 07:52:00;;;;;;;1.05;0.95;;;6.90;99.90;;;;;;5099058;28;20027;-92
2024/04/01 07:54:28;;;;;;;2.55;1.00;;;7.00;99.90;;;;;;5098882;28;20044;-92
2024/04/01 07:57:01;;;;;;;0.70;0.70;;;7.00;99.90;;;;;;5099224;28;20028;-92
2024/04/01 07:59:27;;;;;;;0.73;0.55;;;7.00;99.90;;;;;;5099753;28;20076;-91
2024/04/01 08:01:53;;;;;;;0.57;0.47;;;7.00;99.90;;;;;;5098620;28;20042;-92
2024/04/01 08:04:19;;;;;;;0.85;0.85;;;7.00;99.90;;;;;;5098854;28;20057;-91
2024/04/01 08:06:45;;;;;;;2.00;0.50;;;7.00;99.90;;;;;;5099002;28;20058;-92
2024/04/01 08:09:11;;;;;;;0.50;0.50;;;7.00;99.90;;;;;;5098333;28;20023;-91
2024/04/01 08:11:36;;;;;;;1.10;0.98;;;7.00;99.90;;;;;;5097835;28;20024;-92
2024/04/01 08:14:02;;;;;;;2.35;0.63;;;7.00;99.90;;;;;;5098407;28;20068;-91
2024/04/01 08:16:28;;;;;;;0.50;0.50;;;7.00;99.90;;;;;;5098445;28;20049;-90
2024/04/01 08:18:53;;;;;;;0.30;0.30;;;7.10;99.90;;;;;;5098218;28;20034;-91
2024/04/01 08:21:19;;;;;;;0.40;0.40;;;7.10;99.90;;;;;;5095155;28;20044;-90
2024/04/01 08:23:45;;;;;;;0.50;0.50;;;7.10;99.90;;;;;;5094623;28;20032;-92
2024/04/01 08:26:11;;;;;;;0.80;0.60;;;7.10;99.90;;;;;;5094661;28;20070;-92
2024/04/01 08:28:36;;;;;;;0.55;0.50;;;7.00;99.90;;;;;;5094749;28;20036;-93
2024/04/01 08:31:02;;;;;;;0.55;0.50;;;7.10;99.90;;;;;;5094766;28;20024;-91
2024/04/01 08:33:28;;;;;;;0.98;0.60;;;7.10;99.90;;;;;;5094667;28;20126;-92
2024/04/01 08:35:53;;;;;;;0.63;0.63;;;7.10;99.90;;;;;;5094818;28;20024;-91
2024/04/01 08:38:19;;;;;;;0.80;0.80;;;7.10;99.90;;;;;;5095319;28;20020;-91
2024/04/01 08:41:05;;;;;;;0.60;0.50;;;7.10;99.90;;;;;;5094944;28;20496;-93
2024/04/01 08:43:49;;;;;;;0.43;0.43;;;7.10;99.90;;;;;;5089799;28;20371;-91
2024/04/01 08:46:16;;;;;;;0.45;0.45;;;7.20;99.90;;;;;;5081563;28;20086;-91
2024/04/01 08:48:49;;;;;;;0.50;0.50;;;7.10;99.90;;;;;;5089344;28;20057;-92
2024/04/01 08:51:20;;;;;;;1.05;0.82;;;7.10;99.90;;;;;;5094561;28;20024;-91
2024/04/01 08:53:58;;;;;;;0.73;0.68;;;7.20;99.90;;;;;;5094852;28;20122;-91
2024/04/01 08:56:25;;;;;;;0.77;0.77;;;7.20;99.90;;;;;;5095113;28;20035;-91
2024/04/01 08:58:52;;;;;;;0.95;0.88;;;7.20;99.90;;;;;;5085717;28;20031;-91
2024/04/01 09:01:18;;;;;;;1.75;0.60;;;7.20;99.90;;;;;;5081857;28;20074;-92
2024/04/01 09:03:46;;;;;;;0.80;0.80;;;7.20;99.90;;;;;;5081921;28;20055;-92
2024/04/01 09:06:12;;;;;;;1.05;0.95;;;7.10;99.90;;;;;;5084869;28;20042;-92
2024/04/01 09:08:40;;;;;;;1.05;0.80;;;7.20;99.90;;;;;;5092918;28;20466;-92
2024/04/01 09:11:06;;;;;;;1.85;1.17;;;7.20;99.90;;;;;;5094414;28;20035;-91
2024/04/01 09:13:32;;;;;;;0.90;0.90;;;7.20;99.90;;;;;;5094082;28;20086;-92
2024/04/01 09:15:58;;;;;;;1.23;0.93;;;7.20;99.90;;;;;;5094416;28;20028;-92
2024/04/01 09:18:24;;;;;;;1.02;0.93;;;7.30;99.90;;;;;;5093612;28;20035;-92
2024/04/01 09:20:50;;;;;;;0.60;0.60;;;7.30;99.90;;;;;;5088446;28;20040;-92
2024/04/01 09:23:16;;;;;;;1.08;1.00;;;7.30;99.90;;;;;;5086261;28;20070;-92
2024/04/01 09:25:41;;;;;;;2.92;1.00;;;7.30;99.90;;;;;;5083227;28;20020;-92
2024/04/01 09:28:07;;;;;;;1.45;1.00;;;7.30;99.90;;;;;;5085401;28;20473;-92
2024/04/01 09:30:33;;;;;;;1.25;1.15;;;7.30;99.90;;;;;;5083097;28;20230;-93
2024/04/01 09:33:02;;;;;;;0.70;0.70;;;7.40;99.90;;;;;;5096132;28;20024;-94
2024/04/01 09:35:28;;;;;;;0.80;0.70;;;7.40;99.90;;;;;;5094837;28;20020;-94
2024/04/01 09:37:54;;;;;;;1.13;0.60;;;7.40;99.90;;;;;;5092564;28;20020;-94
2024/04/01 09:40:20;;;;;;;0.63;0.63;;;7.50;99.90;;;;;;5095336;28;20115;-94
2024/04/01 09:42:46;;;;;;;0.50;0.50;;;7.50;99.90;;;;;;5094804;28;20040;-93
2024/04/01 09:45:12;;;;;;;0.82;0.70;;;7.50;99.90;;;;;;5094939;28;20047;-92
2024/04/01 09:47:39;;;;;;;2.58;0.70;;;7.50;99.90;;;;;;5095606;28;20392;-95
2024/04/01 09:50:10;;;;;;;0.50;0.50;;;7.50;99.90;;;;;;5094395;28;20051;-93
2024/04/01 09:52:36;;;;;;;1.02;0.50;;;7.60;99.90;;;;;;5084026;28;20025;-93
2024/04/01 09:55:07;;;;;;;1.48;0.40;;;7.60;99.90;;;;;;5089636;28;20028;-92
2024/04/01 09:57:39;;;;;;;0.60;0.60;;;7.60;99.90;;;;;;5093474;28;20034;-94
2024/04/01 10:00:19;;;;;;;0.73;0.40;;;7.70;99.90;;;;;;5090176;28;20103;-92
2024/04/01 10:03:13;;;;;;;1.13;0.40;;;7.70;99.90;;;;;;5092299;28;20051;-92
2024/04/01 10:06:26;;;;;;;0.73;0.40;;;7.70;99.90;;;;;;5090384;28;20017;-92
2024/04/01 10:09:26;;;;;;;0.70;0.50;;;7.80;99.90;;;;;;5093137;28;20024;-89
2024/04/01 10:12:15;;;;;;;;;;;7.80;99.90;;;;;;5095747;28;20455;-91
2024/04/01 10:15:04;;;;;;;0.85;0.43;;;7.80;99.90;;;;;;5093945;28;19931;-92
2024/04/01 10:17:30;;;;;;;2.70;0.30;;;7.80;99.90;;;;;;5095674;28;20036;-92
2024/04/01 10:20:18;;;;;;;0.45;0.30;;;7.90;99.90;;;;;;5093794;28;20052;-91
2024/04/01 10:23:06;;;;;;;1.08;0.30;;;8.00;99.90;;;;;;5095654;28;20036;-92
2024/04/01 10:25:43;;;;;;;0.98;0.70;;;8.00;99.90;;;;;;5100367;28;20089;-92
2024/04/01 10:28:21;;;;;;;1.17;0.40;;;8.00;99.90;;;;;;5108559;28;20024;-92
2024/04/01 10:30:48;;;;;;;1.60;0.40;;;8.10;99.90;;;;;;5104356;28;20032;-93
2024/04/01 10:33:51;;;;;;;1.90;0.50;;;8.10;99.90;;;;;;5103478;28;20099;-92
2024/04/01 10:36:25;;;;;;;1.42;0.77;;;8.10;99.90;;;;;;5099523;28;20028;-92
2024/04/01 10:39:31;;;;;;;1.42;1.02;;;8.10;99.90;;;;;;5101899;28;20107;-91
2024/04/01 10:42:22;;;;;;;1.95;1.00;;;8.10;99.90;;;;;;5093763;28;20031;-92
2024/04/01 10:45:34;;;;;;;1.13;0.60;;;8.20;99.90;;;;;;5096014;28;20118;-94
2024/04/01 10:48:18;;;;;;;2.85;0.50;;;8.20;99.90;;;;;;5098887;28;20039;-92
2024/04/01 10:51:11;;;;;;;0.85;0.57;;;8.20;99.90;;;;;;5108184;28;20029;-92
2024/04/01 10:54:00;;;;;;;1.23;0.82;;;8.30;99.90;;;;;;5096704;28;20052;-92
2024/04/01 10:56:41;;;;;;;2.50;0.77;;;8.30;99.90;;;;;;5102945;28;20032;-92
2024/04/01 10:59:19;;;;;;;;;;;8.30;99.90;;;;;;5096982;28;20450;-93
2024/04/01 11:02:03;;;;;;;1.25;1.08;;;8.30;99.90;;;;;;5094441;28;19907;-93
2024/04/01 11:05:08;;;;;;;3.17;1.55;;;8.30;99.90;;;;;;5094782;28;20036;-93
2024/04/01 11:07:56;;;;;;;1.63;0.90;;;8.40;99.90;;;;;;5091187;28;20020;-92
2024/04/01 11:10:37;;;;;;;2.40;1.08;;;8.50;99.90;;;;;;5095810;28;20024;-91
2024/04/01 11:13:14;;;;;;;1.92;0.95;;;8.50;99.90;;;;;;5093174;28;20154;-91
2024/04/01 11:15:41;;;;;;;4.85;1.75;;;8.50;99.90;;;;;;5088076;28;20472;-91
2024/04/01 11:18:32;;;;;;;3.70;1.77;;;8.60;99.90;;;;;;5083717;28;20024;-91
2024/04/01 11:21:31;;;;;;;3.40;1.60;;;8.60;99.90;;;;;;5078045;28;20045;-91
2024/04/01 11:24:27;;;;;;;3.20;1.77;;;8.70;99.90;;;;;;5077308;28;20029;-91
2024/04/01 11:27:09;;;;;;;2.55;1.52;;;8.80;99.90;;;;;;5073279;28;20052;-90
2024/04/01 11:29:59;;;;;;;2.47;1.58;;;9.00;99.90;;;;;;5068703;28;20029;-90
2024/04/01 11:32:29;;;;;;;2.10;1.23;;;9.10;99.90;;;;;;5060261;28;20025;-94
2024/04/01 11:35:19;;;;;;;1.85;0.95;;;9.20;99.90;;;;;;5062139;28;20068;-96
2024/04/01 11:37:50;;;;;;;;;;;9.20;99.90;;;;;;5060380;28;20025;-95
2024/04/01 11:40:22;;;;;;;5.97;1.10;;;9.20;99.90;;;;;;5058849;28;19909;-95
2024/04/01 11:43:09;;;;;;;1.20;0.98;;;9.30;99.90;;;;;;5058603;28;20095;-95
2024/04/01 11:45:42;;;;;;;1.52;1.08;;;9.30;99.90;;;;;;5057326;28;20025;-95
2024/04/01 11:48:09;;;;;;;1.38;1.00;;;9.30;99.90;;;;;;5057315;28;20029;-94
2024/04/01 11:50:35;;;;;;;2.60;1.27;;;9.40;99.90;;;;;;5057932;28;20079;-93
2024/04/01 11:53:05;;;;;;;3.45;1.50;;;9.40;99.90;;;;;;5059234;28;20057;-94
2024/04/01 11:55:32;;;;;;;1.63;1.00;;;9.50;99.90;;;;;;5058399;28;20031;-95
2024/04/01 11:58:12;;;;;;;2.58;1.10;;;9.50;99.90;;;;;;5064689;28;20035;-95
2024/04/01 12:00:51;;;;;;;1.83;1.15;;;9.60;99.90;;;;;;5070104;28;20110;-94
2024/04/01 12:03:19;;;;;;;1.58;1.10;;;9.60;99.90;;;;;;5064493;28;20043;-95
2024/04/01 12:05:53;;;;;;;1.67;1.10;;;9.70;99.90;;;;;;5061256;28;20025;-94
2024/04/01 12:08:24;;;;;;;1.15;1.02;;;9.70;99.90;;;;;;5057716;28;20457;-95
2024/04/01 12:10:50;;;;;;;3.38;0.82;;;9.70;99.90;;;;;;5060016;28;20029;-96
2024/04/01 12:13:17;;;;;;;1.00;0.90;;;9.80;99.90;;;;;;5057022;28;20121;-94
2024/04/01 12:15:45;;;;;;;0.98;0.68;;;9.80;99.90;;;;;;5056692;28;20052;-94
2024/04/01 12:18:15;;;;;;;1.80;1.00;;;9.80;99.90;;;;;;5057731;28;20055;-95
2024/04/01 12:20:42;;;;;;;2.72;1.10;;;9.90;99.90;;;;;;5070919;28;20108;-95
2024/04/01 12:23:09;;;;;;;2.58;1.20;;;9.90;99.90;;;;;;5058724;28;20100;-95
2024/04/01 12:25:35;;;;;;;2.80;1.92;;;9.90;99.90;;;;;;5058851;28;20029;-95
2024/04/01 12:28:05;;;;;;;3.25;1.33;;;10.00;99.90;;;;;;5060535;28;20025;-94
2024/04/01 12:30:37;;;;;;;1.58;1.20;;;10.00;99.90;;;;;;5058193;28;20025;-95
2024/04/01 12:33:09;;;;;;;1.40;1.17;;;10.00;99.90;;;;;;5062937;28;20144;-96
2024/04/01 12:35:35;;;;;;;2.20;1.20;;;10.00;99.90;;;;;;5059800;28;20547;-94
2024/04/01 12:38:06;;;;;;;2.35;1.23;;;9.90;99.90;;;;;;5061096;28;20501;-95
2024/04/01 12:40:50;;;;;;;1.52;1.00;;;9.90;99.90;;;;;;5059452;28;20029;-94
2024/04/01 12:43:17;;;;;;;1.40;1.15;;;9.90;99.90;;;;;;5059547;28;20113;-93
2024/04/01 12:45:45;;;;;;;3.78;1.38;;;9.80;99.90;;;;;;5062446;28;20025;-95
2024/04/01 12:48:16;;;;;;;1.40;1.00;;;9.70;99.90;;;;;;5059457;28;20029;-94
2024/04/01 12:50:44;;;;;;;2.47;0.90;;;9.60;99.90;;;;;;5061733;28;20021;-94
2024/04/01 12:53:16;;;;;;;1.33;0.90;;;9.60;99.90;;;;;;5062199;28;20120;-95
2024/04/01 12:55:51;;;;;;;4.32;1.38;;;9.60;99.90;;;;;;5060301;28;20017;-94
2024/04/01 12:58:55;;;;;;;1.23;1.13;;;9.60;99.90;;;;;;5058305;28;20032;-93
2024/04/01 13:01:45;;;;;;;4.05;1.38;;;9.60;99.90;;;;;;5037728;28;20103;-94
2024/04/01 13:04:35;;;;;;;2.63;1.70;;;9.60;99.90;;;;;;5057722;28;20033;-94
2024/04/01 13:07:39;;;;;;;;;;;;;;;;;;;;;
2024/04/01 13:10:23;;;;;;;1.50;1.15;;;9.50;99.90;;;;;;5060891;28;20092;-94